Time;durP1;ratioP1;P1;durP2;ratioP2;P2;SDS_P1;SDS_P2;PMS_P1;PMS_P2;Temp;Humidity;BMP_temperature;BMP_pressure;BME280_temperature;BME280_humidity;BME280_pressure;Samples;Min_cycle;Max_cycle;Signal;HPM_P1;HPM_P2
2022/09/08 00:01:47;;;;;;;14.80;10.05;;;17.00;99.90;;;;;;5045527;28;20088;-70
2022/09/08 00:04:13;;;;;;;25.88;10.93;;;17.00;99.90;;;;;;5046816;28;20134;-71
2022/09/08 00:06:39;;;;;;;15.95;11.50;;;17.00;99.90;;;;;;5050772;28;20055;-69
2022/09/08 00:09:06;;;;;;;13.27;10.65;;;17.00;99.90;;;;;;5048792;28;20128;-71
2022/09/08 00:11:33;;;;;;;15.98;12.38;;;17.10;99.90;;;;;;5047171;28;20037;-70
2022/09/08 00:14:02;;;;;;;15.15;11.15;;;17.00;99.90;;;;;;5046917;28;20049;-71
2022/09/08 00:16:28;;;;;;;16.25;10.88;;;17.00;99.90;;;;;;5045192;28;20047;-71
2022/09/08 00:18:54;;;;;;;16.80;11.32;;;17.00;99.90;;;;;;5043028;28;20044;-71
2022/09/08 00:21:26;;;;;;;16.40;11.82;;;17.00;99.90;;;;;;5046455;28;20069;-70
2022/09/08 00:23:51;;;;;;;18.15;11.93;;;17.00;99.90;;;;;;5048669;28;20131;-71
2022/09/08 00:26:19;;;;;;;21.33;13.02;;;17.00;99.90;;;;;;5046697;28;20116;-70
2022/09/08 00:28:45;;;;;;;20.40;12.52;;;17.10;99.90;;;;;;5046640;28;20124;-71
2022/09/08 00:31:11;;;;;;;13.95;12.25;;;17.00;99.90;;;;;;5045456;28;20136;-71
2022/09/08 00:33:37;;;;;;;17.33;12.85;;;17.10;99.90;;;;;;5045666;28;20045;-71
2022/09/08 00:36:03;;;;;;;15.60;12.60;;;17.00;99.90;;;;;;5043525;28;20040;-69
2022/09/08 00:38:30;;;;;;;18.92;12.45;;;17.00;99.90;;;;;;5048398;28;20361;-70
2022/09/08 00:40:57;;;;;;;15.50;12.30;;;17.00;99.90;;;;;;5047242;28;20496;-71
2022/09/08 00:43:41;;;;;;;17.48;13.15;;;17.00;99.90;;;;;;5044820;28;20037;-71
2022/09/08 00:46:11;;;;;;;22.40;13.75;;;16.90;99.90;;;;;;5045177;28;20045;-72
2022/09/08 00:48:43;;;;;;;18.23;13.63;;;16.90;99.90;;;;;;5047918;28;20080;-71
2022/09/08 00:51:09;;;;;;;16.88;14.15;;;16.90;99.90;;;;;;5046810;28;20422;-70
2022/09/08 00:53:39;;;;;;;19.48;14.50;;;16.90;99.90;;;;;;5045941;28;20120;-69
2022/09/08 00:56:06;;;;;;;18.33;14.90;;;16.80;99.90;;;;;;5047052;28;20464;-69
2022/09/08 00:58:41;;;;;;;19.58;15.80;;;16.80;99.90;;;;;;5044557;28;20175;-70
2022/09/08 01:01:07;;;;;;;21.80;15.82;;;16.80;99.90;;;;;;5046266;28;20060;-70
2022/09/08 01:03:36;;;;;;;21.08;16.77;;;16.80;99.90;;;;;;5045766;28;20032;-70
2022/09/08 01:15:03;;;;;;;26.38;20.38;;;16.70;99.90;;;;;;5048618;28;20079;-70
2022/09/08 01:17:31;;;;;;;29.70;21.02;;;16.70;99.90;;;;;;5048331;28;20124;-70
2022/09/08 01:19:59;;;;;;;24.55;21.42;;;16.70;99.90;;;;;;5047492;28;20044;-70
2022/09/08 01:22:43;;;;;;;27.92;20.83;;;16.70;99.90;;;;;;5044231;28;20488;-70
2022/09/08 01:25:42;;;;;;;26.75;22.85;;;16.70;99.90;;;;;;5040378;28;20052;-70
2022/09/08 01:28:25;;;;;;;28.85;23.67;;;16.70;99.90;;;;;;5048625;28;20037;-71
2022/09/08 01:30:53;;;;;;;31.92;23.40;;;16.60;99.90;;;;;;5045142;28;20377;-70
2022/09/08 01:33:20;;;;;;;26.42;23.20;;;16.60;99.90;;;;;;5048105;28;20029;-70
2022/09/08 02:22:59;;;;;;;35.85;30.42;;;16.70;99.90;;;;;;5372711;23;20046;-71
2022/09/08 02:25:25;;;;;;;36.20;29.20;;;16.70;99.90;;;;;;4994812;28;20053;-70
2022/09/08 02:27:52;;;;;;;39.20;30.38;;;16.60;99.90;;;;;;5007287;28;20042;-70
2022/09/08 02:30:18;;;;;;;34.47;29.53;;;16.80;99.90;;;;;;4984011;28;20050;-71
2022/09/08 02:32:44;;;;;;;36.70;29.45;;;16.80;99.90;;;;;;5002309;28;20089;-70
2022/09/08 02:35:09;;;;;;;37.38;31.60;;;16.80;99.90;;;;;;5005728;28;20177;-70
2022/09/08 02:37:35;;;;;;;37.78;31.17;;;16.80;99.90;;;;;;5008013;28;20064;-70
2022/09/08 02:40:03;;;;;;;38.38;30.60;;;16.80;99.90;;;;;;4995669;28;20401;-69
2022/09/08 02:42:28;;;;;;;39.03;31.17;;;16.90;99.90;;;;;;5010370;28;20046;-70
2022/09/08 02:44:54;;;;;;;40.38;31.65;;;16.90;99.90;;;;;;5003059;28;20054;-71
2022/09/08 02:47:20;;;;;;;42.45;32.60;;;16.90;99.90;;;;;;5002060;28;20125;-70
2022/09/08 02:49:45;;;;;;;36.28;32.03;;;16.90;99.90;;;;;;4993939;28;20038;-71
2022/09/08 02:52:11;;;;;;;41.17;32.35;;;16.90;99.90;;;;;;5001540;28;20042;-70
2022/09/08 02:54:37;;;;;;;39.38;32.95;;;16.90;99.90;;;;;;5006960;28;20481;-70
2022/09/08 02:57:03;;;;;;;37.67;32.67;;;16.90;99.90;;;;;;4975502;28;20049;-70
2022/09/08 02:59:29;;;;;;;47.47;34.28;;;17.00;99.90;;;;;;5008027;28;20567;-70
2022/09/08 03:01:54;;;;;;;43.60;34.25;;;17.00;99.90;;;;;;5003539;28;20042;-71
2022/09/08 03:04:20;;;;;;;38.90;33.42;;;17.00;99.90;;;;;;5005273;28;20521;-71
2022/09/08 03:06:45;;;;;;;39.42;34.33;;;17.10;99.90;;;;;;5009666;28;20038;-69
2022/09/08 03:09:11;;;;;;;42.05;34.30;;;17.00;99.90;;;;;;5007648;28;20397;-70
2022/09/08 03:11:37;;;;;;;41.10;34.42;;;17.00;99.90;;;;;;5011000;28;20042;-70
2022/09/08 03:14:03;;;;;;;42.40;35.38;;;17.00;99.90;;;;;;5004350;28;20038;-70
2022/09/08 03:16:29;;;;;;;42.30;36.00;;;17.00;99.90;;;;;;5006286;28;20042;-70
2022/09/08 03:18:55;;;;;;;41.83;36.45;;;17.00;99.90;;;;;;5008893;28;20088;-70
2022/09/08 03:21:21;;;;;;;44.80;36.90;;;17.00;99.90;;;;;;4991948;28;20145;-70
2022/09/08 03:23:47;;;;;;;47.50;37.55;;;16.90;99.90;;;;;;5010763;28;20144;-69
2022/09/08 03:26:16;;;;;;;45.42;36.67;;;16.90;99.90;;;;;;4993708;28;20371;-69
2022/09/08 03:28:43;;;;;;;45.00;38.80;;;17.00;99.90;;;;;;5004693;28;20069;-70
2022/09/08 03:31:12;;;;;;;44.10;36.38;;;17.00;99.90;;;;;;5006308;28;20037;-70
2022/09/08 03:33:38;;;;;;;44.80;36.58;;;17.00;99.90;;;;;;5008296;28;20033;-70
2022/09/08 03:36:06;;;;;;;50.92;39.75;;;17.00;99.90;;;;;;5010414;28;20139;-70
2022/09/08 03:38:33;;;;;;;46.65;37.60;;;16.90;99.90;;;;;;5006709;28;20041;-71
2022/09/08 03:40:59;;;;;;;48.97;39.30;;;16.90;99.90;;;;;;5008910;28;20038;-71
2022/09/08 03:43:25;;;;;;;48.20;38.15;;;16.90;99.90;;;;;;5006166;28;20448;-70
2022/09/08 03:45:50;;;;;;;54.92;40.25;;;16.90;99.90;;;;;;5006014;28;20108;-70
2022/09/08 03:48:17;;;;;;;48.63;39.58;;;16.90;99.90;;;;;;5005681;28;20129;-70
2022/09/08 03:50:43;;;;;;;51.70;40.30;;;16.90;99.90;;;;;;4989895;28;20096;-69
2022/09/08 03:53:10;;;;;;;53.20;40.80;;;17.00;99.90;;;;;;5007601;28;20045;-70
2022/09/08 03:55:39;;;;;;;52.55;42.33;;;17.00;99.90;;;;;;5008293;28;20050;-70
2022/09/08 03:58:05;;;;;;;47.72;39.35;;;16.90;99.90;;;;;;5006933;28;20046;-70
2022/09/08 04:00:31;;;;;;;50.55;41.22;;;17.00;99.90;;;;;;5008228;28;20601;-71
2022/09/08 04:02:57;;;;;;;54.30;40.75;;;17.00;99.90;;;;;;5009555;28;20120;-71
2022/09/08 04:05:23;;;;;;;54.58;41.63;;;17.00;99.90;;;;;;4987925;28;20067;-70
2022/09/08 04:07:50;;;;;;;50.55;40.85;;;17.00;99.90;;;;;;5006970;28;20084;-68
2022/09/08 04:10:15;;;;;;;54.45;43.30;;;17.00;99.90;;;;;;4990032;28;20145;-69
2022/09/08 04:12:41;;;;;;;53.42;42.25;;;17.00;99.90;;;;;;5009638;28;20069;-70
2022/09/08 04:15:09;;;;;;;55.22;43.55;;;17.10;99.90;;;;;;5006480;28;20046;-70
2022/09/08 04:17:35;;;;;;;52.38;43.80;;;17.00;99.90;;;;;;5004297;28;20037;-70
2022/09/08 04:20:02;;;;;;;53.38;43.40;;;17.00;99.90;;;;;;5007693;28;20551;-70
2022/09/08 04:22:28;;;;;;;60.72;44.92;;;17.00;99.90;;;;;;5005877;28;20053;-70
2022/09/08 04:24:53;;;;;;;61.15;46.22;;;17.10;99.90;;;;;;5010224;28;20046;-70
2022/09/08 04:27:21;;;;;;;53.25;44.17;;;17.10;99.90;;;;;;5006123;28;20080;-69
2022/09/08 04:29:47;;;;;;;51.65;43.17;;;17.10;99.90;;;;;;5009387;28;20054;-69
2022/09/08 04:32:13;;;;;;;54.22;44.75;;;17.10;99.90;;;;;;5006160;28;20049;-69
2022/09/08 04:34:39;;;;;;;56.55;44.22;;;17.10;99.90;;;;;;5007741;28;20050;-70
2022/09/08 04:37:05;;;;;;;55.38;44.03;;;17.10;99.90;;;;;;5009023;28;20044;-70
2022/09/08 04:39:31;;;;;;;52.38;43.80;;;17.10;99.90;;;;;;5008728;28;20035;-69
2022/09/08 04:41:57;;;;;;;60.63;45.83;;;17.10;99.90;;;;;;5009633;28;20034;-70
2022/09/08 04:44:23;;;;;;;56.78;45.67;;;17.10;99.90;;;;;;5010423;28;20030;-70
2022/09/08 04:46:49;;;;;;;53.92;44.47;;;17.20;99.90;;;;;;4989233;28;20107;-70
2022/09/08 04:49:14;;;;;;;57.58;45.50;;;17.10;99.90;;;;;;5006447;28;20049;-70
2022/09/08 04:51:40;;;;;;;56.83;46.15;;;17.20;99.90;;;;;;4969470;28;20041;-70
2022/09/08 04:54:06;;;;;;;60.50;45.75;;;17.10;99.90;;;;;;5009772;28;20042;-70
2022/09/08 04:56:32;;;;;;;53.50;43.13;;;17.20;99.90;;;;;;5005212;28;20060;-70
2022/09/08 04:59:00;;;;;;;60.40;46.72;;;17.20;99.90;;;;;;5006619;28;20398;-70
2022/09/08 05:01:32;;;;;;;57.55;45.65;;;17.20;99.90;;;;;;5005256;28;20406;-70
2022/09/08 05:04:00;;;;;;;53.08;43.75;;;17.20;99.90;;;;;;4988021;28;20042;-70
2022/09/08 05:06:28;;;;;;;55.25;43.80;;;17.20;99.90;;;;;;5010665;28;20049;-70
2022/09/08 05:08:55;;;;;;;;;;;17.20;99.90;;;;;;4994814;28;20042;-70
2022/09/08 05:11:21;;;;;;;59.58;45.45;;;17.20;99.90;;;;;;5012112;28;20013;-69
2022/09/08 05:13:49;;;;;;;58.63;46.70;;;17.20;99.90;;;;;;5011261;28;20068;-69
2022/09/08 05:16:17;;;;;;;57.20;46.80;;;17.20;99.90;;;;;;4972738;28;20089;-70
2022/09/08 05:18:50;;;;;;;57.35;45.10;;;17.20;99.90;;;;;;5005264;28;20046;-69
2022/09/08 05:21:16;;;;;;;54.65;42.42;;;17.30;99.90;;;;;;5010879;28;20048;-70
2022/09/08 05:23:42;;;;;;;56.00;43.97;;;17.20;99.90;;;;;;5005456;28;20061;-69
2022/09/08 05:26:11;;;;;;;54.75;43.42;;;17.20;99.90;;;;;;5006313;28;20041;-70
2022/09/08 05:28:39;;;;;;;54.75;43.22;;;17.30;99.90;;;;;;5009196;28;20053;-70
2022/09/08 05:31:06;;;;;;;57.78;44.67;;;17.30;99.90;;;;;;5010619;28;20048;-71
2022/09/08 05:33:32;;;;;;;55.80;45.03;;;17.30;99.90;;;;;;5014446;28;20519;-71
2022/09/08 05:35:58;;;;;;;57.78;44.95;;;17.30;99.90;;;;;;5014746;28;20084;-71
2022/09/08 05:38:24;;;;;;;55.35;45.78;;;17.40;99.90;;;;;;5006790;28;20131;-71
2022/09/08 05:40:50;;;;;;;55.10;47.00;;;17.30;99.90;;;;;;5012217;28;20115;-70
2022/09/08 05:43:16;;;;;;;59.95;46.90;;;17.40;99.90;;;;;;5010630;28;20092;-70
2022/09/08 05:45:47;;;;;;;55.28;45.42;;;17.40;99.90;;;;;;4990853;28;20131;-70
2022/09/08 05:48:13;;;;;;;51.67;44.67;;;17.40;99.90;;;;;;5018158;28;20436;-70
2022/09/08 05:50:43;;;;;;;54.97;45.03;;;17.40;99.90;;;;;;5009723;28;20481;-70
2022/09/08 05:53:09;;;;;;;53.42;45.35;;;17.40;99.90;;;;;;5010257;28;20083;-71
2022/09/08 05:55:35;;;;;;;56.65;45.55;;;17.40;99.90;;;;;;5011791;28;20512;-70
2022/09/08 05:58:01;;;;;;;53.13;44.50;;;17.50;99.90;;;;;;5007250;28;20042;-69
2022/09/08 06:00:27;;;;;;;55.85;44.33;;;17.50;99.90;;;;;;5003132;28;21200;-70
2022/09/08 06:02:53;;;;;;;53.78;44.17;;;17.50;99.90;;;;;;5010952;28;20297;-68
2022/09/08 06:05:22;;;;;;;55.10;44.75;;;17.60;99.90;;;;;;5006778;28;20079;-70
2022/09/08 06:07:48;;;;;;;51.28;42.90;;;17.50;99.90;;;;;;5010778;28;20129;-70
2022/09/08 06:10:15;;;;;;;52.20;43.28;;;17.60;99.90;;;;;;5011480;28;20046;-69
2022/09/08 06:12:41;;;;;;;53.38;42.95;;;17.60;99.90;;;;;;5005642;28;20066;-70
2022/09/08 06:15:08;;;;;;;53.53;42.28;;;17.60;99.90;;;;;;5010020;28;20073;-70
2022/09/08 06:17:35;;;;;;;49.40;40.95;;;17.60;99.90;;;;;;5011980;28;20125;-70
2022/09/08 06:20:01;;;;;;;51.00;43.03;;;17.70;99.90;;;;;;5010921;28;20037;-70
2022/09/08 06:22:31;;;;;;;49.42;41.83;;;17.70;99.90;;;;;;5002332;28;20053;-70
2022/09/08 06:24:56;;;;;;;50.05;41.85;;;17.70;99.90;;;;;;5010786;28;20196;-69
2022/09/08 06:27:53;;;;;;;47.35;41.47;;;17.60;99.90;;;;;;5011573;28;20034;-69
2022/09/08 06:30:19;;;;;;;55.53;42.97;;;17.70;99.90;;;;;;4983376;28;20054;-69
2022/09/08 06:32:59;;;;;;;52.88;42.33;;;17.70;99.90;;;;;;4991876;28;20049;-68
2022/09/08 06:35:45;;;;;;;53.70;43.20;;;17.70;99.90;;;;;;5003855;28;20521;-70
2022/09/08 06:38:15;;;;;;;51.03;42.53;;;17.70;99.90;;;;;;5005890;28;20497;-69
2022/09/08 06:40:48;;;;;;;52.90;43.20;;;17.70;99.90;;;;;;5004885;28;20085;-70
2022/09/08 06:43:20;;;;;;;52.97;43.13;;;17.70;99.90;;;;;;4992297;28;20038;-70
2022/09/08 06:45:50;;;;;;;53.28;41.67;;;17.80;99.90;;;;;;5007166;28;20034;-68
2022/09/08 06:48:15;;;;;;;52.80;41.85;;;17.70;99.90;;;;;;4983049;28;20045;-69
2022/09/08 06:51:02;;;;;;;50.63;40.42;;;17.70;99.90;;;;;;5008011;28;20131;-69
2022/09/08 06:53:51;;;;;;;50.97;41.35;;;17.70;99.90;;;;;;4986642;28;20048;-69
2022/09/08 06:56:26;;;;;;;;;;;17.70;99.90;;;;;;5008428;28;20053;-70
2022/09/08 06:58:59;;;;;;;53.33;42.22;;;17.70;99.90;;;;;;5002335;28;19929;-69
2022/09/08 07:01:33;;;;;;;61.22;44.22;;;17.70;99.90;;;;;;4989934;28;20494;-69
2022/09/08 07:04:04;;;;;;;59.17;44.13;;;17.70;99.90;;;;;;4993455;28;20049;-68
2022/09/08 07:06:36;;;;;;;61.85;44.78;;;17.70;99.90;;;;;;4995130;28;20533;-68
2022/09/08 07:09:19;;;;;;;69.25;45.28;;;17.70;99.90;;;;;;5008727;28;20123;-68
2022/09/08 07:12:10;;;;;;;67.45;47.30;;;17.70;99.90;;;;;;4992316;28;20111;-69
2022/09/08 07:15:13;;;;;;;59.55;46.17;;;17.70;99.90;;;;;;4997509;28;20046;-68
2022/09/08 07:17:54;;;;;;;81.18;47.63;;;17.70;99.90;;;;;;4981517;28;20049;-68
2022/09/08 07:20:20;;;;;;;81.53;50.78;;;17.60;99.90;;;;;;4988339;28;20060;-68
2022/09/08 07:22:51;;;;;;;71.20;50.75;;;17.60;99.90;;;;;;5005952;28;20129;-67
2022/09/08 07:25:59;;;;;;;66.60;48.67;;;17.60;99.90;;;;;;4981705;28;20046;-67
2022/09/08 07:28:28;;;;;;;66.18;49.90;;;17.50;99.90;;;;;;4958263;28;20139;-67
2022/09/08 07:31:02;;;;;;;61.58;49.30;;;17.50;99.90;;;;;;5000301;28;20081;-68
2022/09/08 07:33:38;;;;;;;70.13;51.35;;;17.50;99.90;;;;;;4992638;28;20393;-67
2022/09/08 07:36:22;;;;;;;69.00;50.90;;;17.40;99.90;;;;;;5008627;28;20045;-67
2022/09/08 07:38:56;;;;;;;69.43;52.80;;;17.40;99.90;;;;;;5007712;28;20046;-67
2022/09/08 07:41:36;;;;;;;72.43;52.08;;;17.40;99.90;;;;;;5009844;28;20057;-68
2022/09/08 07:44:10;;;;;;;77.68;54.42;;;17.30;99.90;;;;;;5006588;28;20038;-67
2022/09/08 07:46:58;;;;;;;76.30;54.30;;;17.30;99.90;;;;;;5006569;28;20537;-68
2022/09/08 07:49:33;;;;;;;72.72;52.38;;;17.30;99.90;;;;;;5010978;28;20123;-68
2022/09/08 07:52:41;;;;;;;73.00;50.70;;;17.30;99.90;;;;;;5007625;28;20076;-68
2022/09/08 07:55:22;;;;;;;81.20;53.45;;;17.30;99.90;;;;;;5009640;28;20516;-69
2022/09/08 07:58:12;;;;;;;75.15;52.92;;;17.20;99.90;;;;;;4987057;28;20050;-69
2022/09/08 08:01:04;;;;;;;66.88;48.40;;;17.20;99.90;;;;;;5008398;28;20038;-69
2022/09/08 08:03:55;;;;;;;72.70;49.75;;;17.20;99.90;;;;;;4961354;28;20081;-70
2022/09/08 08:06:37;;;;;;;69.13;48.63;;;17.10;99.90;;;;;;5005314;28;20137;-68
2022/09/08 08:09:18;;;;;;;74.22;49.58;;;17.10;99.90;;;;;;4983368;28;20599;-68
2022/09/08 08:11:58;;;;;;;67.45;45.90;;;17.10;99.90;;;;;;5001004;28;20042;-69
2022/09/08 08:14:36;;;;;;;77.85;49.20;;;17.10;99.90;;;;;;5000656;28;20033;-69
2022/09/08 08:17:04;;;;;;;64.47;45.35;;;17.10;99.90;;;;;;5004317;28;20046;-69
2022/09/08 08:19:52;;;;;;;69.43;45.40;;;17.10;99.90;;;;;;5007047;28;20588;-69
2022/09/08 08:22:33;;;;;;;73.13;46.22;;;17.10;99.90;;;;;;4992593;28;20508;-68
2022/09/08 08:25:28;;;;;;;64.00;43.50;;;17.10;99.90;;;;;;5007000;28;20233;-68
2022/09/08 08:28:17;;;;;;;78.53;48.30;;;17.00;99.90;;;;;;5009889;28;20382;-69
2022/09/08 08:31:08;;;;;;;74.47;47.25;;;17.00;99.90;;;;;;5001733;28;20512;-68
2022/09/08 08:33:44;;;;;;;73.70;45.50;;;17.10;99.90;;;;;;5012558;28;20061;-69
2022/09/08 08:36:13;;;;;;;72.40;44.50;;;17.10;99.90;;;;;;5008266;28;20050;-68
2022/09/08 08:38:49;;;;;;;67.55;43.83;;;17.10;99.90;;;;;;5005033;28;20128;-69
2022/09/08 08:41:33;;;;;;;73.68;45.47;;;17.10;99.90;;;;;;5006146;28;20465;-69
2022/09/08 08:44:37;;;;;;;73.05;45.42;;;17.10;99.90;;;;;;5008778;28;20045;-68
2022/09/08 08:47:21;;;;;;;67.18;44.10;;;17.20;99.90;;;;;;5007360;28;20509;-68
2022/09/08 08:50:09;;;;;;;61.92;41.17;;;17.20;99.90;;;;;;5006494;28;20050;-69
2022/09/08 08:52:59;;;;;;;67.85;42.50;;;17.20;99.90;;;;;;5006871;28;20069;-69
2022/09/08 08:55:42;;;;;;;82.43;45.30;;;17.20;99.90;;;;;;5007450;28;20054;-69
2022/09/08 08:59:05;;;;;;;65.30;45.25;;;17.30;99.90;;;;;;5005533;28;20053;-69
2022/09/08 09:01:54;;;;;;;62.60;43.20;;;17.40;99.90;;;;;;5006197;22;20459;-88
2022/09/08 09:04:52;;;;;;;57.63;41.55;;;17.30;99.90;;;;;;5254968;23;20066;-68
2022/09/08 09:08:06;;;;;;;62.63;43.50;;;17.40;99.90;;;;;;5024034;28;20045;-69
2022/09/08 09:10:41;;;;;;;52.30;39.60;;;17.40;99.90;;;;;;5001383;28;20038;-69
2022/09/08 09:13:24;;;;;;;61.00;43.20;;;17.50;99.90;;;;;;5024082;28;20050;-69
2022/09/08 09:16:17;;;;;;;61.88;43.15;;;17.50;99.90;;;;;;4994648;28;20493;-70
2022/09/08 09:19:07;;;;;;;56.75;39.63;;;17.40;99.90;;;;;;5003320;28;20140;-68
2022/09/08 09:22:01;;;;;;;68.05;44.33;;;17.40;99.90;;;;;;4999661;28;20646;-69
2022/09/08 09:24:45;;;;;;;53.85;39.78;;;17.40;99.90;;;;;;4995842;28;20425;-68
2022/09/08 09:27:41;;;;;;;56.40;40.72;;;17.50;99.90;;;;;;5015763;28;20460;-69
2022/09/08 09:30:09;;;;;;;59.20;41.38;;;17.50;99.90;;;;;;5000149;28;20041;-68
2022/09/08 09:33:06;;;;;;;65.60;43.25;;;17.60;99.90;;;;;;5011974;28;20224;-69
2022/09/08 09:35:48;;;;;;;59.10;40.58;;;17.60;99.90;;;;;;5013841;28;20057;-68
2022/09/08 09:38:39;;;;;;;66.68;42.85;;;17.60;99.90;;;;;;5010527;28;20088;-68
2022/09/08 09:41:38;;;;;;;52.22;37.65;;;17.60;99.90;;;;;;4998928;28;20972;-67
2022/09/08 09:44:25;;;;;;;56.20;37.85;;;17.70;99.90;;;;;;4999884;28;20044;-68
2022/09/08 09:47:06;;;;;;;49.25;36.85;;;17.70;99.90;;;;;;5000155;28;20748;-68
2022/09/08 09:50:09;;;;;;;45.03;32.80;;;17.80;99.90;;;;;;5010517;28;20073;-70
2022/09/08 09:53:02;;;;;;;44.47;31.67;;;17.90;99.90;;;;;;5010864;28;20041;-67
2022/09/08 09:55:59;;;;;;;41.78;32.30;;;17.90;99.90;;;;;;5010864;28;20085;-67
2022/09/08 09:59:23;;;;;;;40.45;30.60;;;18.00;99.90;;;;;;5005949;28;20103;-67
2022/09/08 10:02:20;;;;;;;35.05;28.10;;;18.00;99.90;;;;;;5005162;28;20132;-68
2022/09/08 10:05:20;;;;;;;30.13;24.02;;;18.00;99.90;;;;;;4997596;28;20081;-69
2022/09/08 10:08:25;;;;;;;29.58;22.88;;;18.00;99.90;;;;;;4981349;28;20053;-69
2022/09/08 10:11:28;;;;;;;28.27;22.92;;;18.00;99.90;;;;;;4995991;28;20100;-70
2022/09/08 10:14:12;;;;;;;30.10;21.48;;;18.00;99.90;;;;;;4985492;28;20046;-70
2022/09/08 10:17:42;;;;;;;28.27;19.48;;;17.90;99.90;;;;;;4982412;28;20050;-69
2022/09/08 10:20:29;;;;;;;27.00;19.70;;;17.90;99.90;;;;;;4927504;28;20120;-69
2022/09/08 10:23:33;;;;;;;18.25;15.82;;;17.80;99.90;;;;;;4982113;28;20597;-70
2022/09/08 10:26:31;;;;;;;24.40;17.67;;;17.80;99.90;;;;;;4989393;28;20046;-70
2022/09/08 10:29:34;;;;;;;26.08;18.88;;;17.80;99.90;;;;;;4981263;28;20514;-71
2022/09/08 10:32:11;;;;;;;18.58;13.75;;;17.80;99.90;;;;;;4947838;28;20518;-70
2022/09/08 10:34:56;;;;;;;17.70;13.73;;;17.70;99.90;;;;;;4997591;28;20041;-70
2022/09/08 10:37:40;;;;;;;18.20;13.65;;;17.70;99.90;;;;;;4971755;28;20226;-69
2022/09/08 10:40:36;;;;;;;17.13;13.50;;;17.70;99.90;;;;;;5001284;28;20053;-70
2022/09/08 10:43:46;;;;;;;16.30;12.55;;;17.70;99.90;;;;;;4981194;28;20061;-71
2022/09/08 10:46:30;;;;;;;10.18;8.32;;;17.70;99.90;;;;;;4990231;28;20039;-70
2022/09/08 10:49:25;;;;;;;9.95;7.57;;;17.60;99.90;;;;;;4977651;28;20060;-70
2022/09/08 10:52:25;;;;;;;12.10;8.50;;;17.60;99.90;;;;;;4994214;28;20042;-69
2022/09/08 10:55:27;;;;;;;13.52;7.88;;;17.70;99.90;;;;;;4984565;28;20055;-69
2022/09/08 10:58:13;;;;;;;13.85;8.35;;;17.70;99.90;;;;;;4996270;28;20401;-70
2022/09/08 11:00:57;;;;;;;12.20;7.53;;;17.70;99.90;;;;;;4984168;28;20038;-70
2022/09/08 11:04:10;;;;;;;11.55;6.63;;;17.70;99.90;;;;;;4989593;28;20072;-70
2022/09/08 11:06:36;;;;;;;9.80;6.78;;;17.70;99.90;;;;;;4989895;28;20082;-71
2022/09/08 11:09:36;;;;;;;9.25;5.72;;;17.60;99.90;;;;;;4995389;28;20077;-69
2022/09/08 11:12:15;;;;;;;10.25;6.43;;;17.60;99.90;;;;;;4986334;28;20049;-69
2022/09/08 11:15:01;;;;;;;9.60;6.78;;;17.50;99.90;;;;;;4989016;28;20116;-70
2022/09/08 11:17:28;;;;;;;8.55;5.60;;;17.50;99.90;;;;;;4992344;28;20039;-70
2022/09/08 11:20:16;;;;;;;11.65;5.60;;;17.40;99.90;;;;;;4997120;28;20057;-70
2022/09/08 11:22:54;;;;;;;8.93;4.82;;;17.40;99.90;;;;;;4984379;28;20042;-70
2022/09/08 11:25:27;;;;;;;6.32;4.78;;;17.40;99.90;;;;;;4983994;28;20038;-68
2022/09/08 11:28:39;;;;;;;7.45;5.40;;;17.40;99.90;;;;;;4985039;28;20042;-69
2022/09/08 11:31:15;;;;;;;11.00;5.70;;;17.40;99.90;;;;;;4989900;28;20137;-69
2022/09/08 11:34:05;;;;;;;7.05;5.00;;;17.40;99.90;;;;;;4988412;28;20085;-68
2022/09/08 11:36:52;;;;;;;5.63;4.00;;;17.40;99.90;;;;;;4982073;28;20467;-68
2022/09/08 11:39:44;;;;;;;8.90;4.57;;;17.30;99.90;;;;;;5001779;28;20058;-69
2022/09/08 11:42:24;;;;;;;7.45;4.00;;;17.30;99.90;;;;;;5003635;28;20042;-69
2022/09/08 11:45:14;;;;;;;8.02;3.30;;;17.30;99.90;;;;;;4986266;28;20081;-69
2022/09/08 11:47:57;;;;;;;8.75;3.33;;;17.30;99.90;;;;;;4992672;28;20529;-69
2022/09/08 11:50:41;;;;;;;4.90;2.80;;;17.30;99.90;;;;;;4977985;28;20109;-70
2022/09/08 11:53:23;;;;;;;4.30;3.00;;;17.30;99.90;;;;;;4998915;28;20070;-69
2022/09/08 11:56:11;;;;;;;7.32;3.30;;;17.20;99.90;;;;;;4993093;28;20046;-69
2022/09/08 11:58:42;;;;;;;8.32;3.70;;;17.20;99.90;;;;;;4994189;28;20498;-69
2022/09/08 12:01:29;;;;;;;6.50;3.05;;;17.20;99.90;;;;;;4982677;28;20046;-69
2022/09/08 12:04:39;;;;;;;8.15;3.58;;;17.20;99.90;;;;;;4990021;28;20058;-69
2022/09/08 12:07:38;;;;;;;7.25;3.25;;;17.20;99.90;;;;;;4998920;28;20069;-69
2022/09/08 12:10:25;;;;;;;11.15;3.45;;;17.20;99.90;;;;;;4990497;28;20108;-69
2022/09/08 12:13:04;;;;;;;5.40;3.30;;;17.20;99.90;;;;;;4992832;28;20042;-68
2022/09/08 12:16:05;;;;;;;12.65;3.70;;;17.20;99.90;;;;;;4992499;28;20066;-69
2022/09/08 12:18:43;;;;;;;8.50;3.55;;;17.20;99.90;;;;;;4974939;28;20133;-67
2022/09/08 12:21:14;;;;;;;10.63;4.07;;;17.20;99.90;;;;;;4989191;28;20050;-68
2022/09/08 12:24:06;;;;;;;10.80;4.00;;;17.20;99.90;;;;;;4987989;28;20068;-68
2022/09/08 12:26:59;;;;;;;15.45;4.05;;;17.20;99.90;;;;;;4985153;28;20287;-70
2022/09/08 12:29:46;;;;;;;7.60;3.65;;;17.20;99.90;;;;;;5004334;28;20509;-69
2022/09/08 12:32:56;;;;;;;6.95;3.63;;;17.30;99.90;;;;;;4985303;28;20092;-69
2022/09/08 12:35:43;;;;;;;18.30;4.40;;;17.30;99.90;;;;;;4965619;28;20526;-69
2022/09/08 12:38:30;;;;;;;6.43;3.72;;;17.20;99.90;;;;;;4975136;28;20517;-68
2022/09/08 12:41:10;;;;;;;5.57;3.85;;;17.20;99.90;;;;;;5008761;28;20498;-67
2022/09/08 12:43:41;;;;;;;6.72;4.13;;;17.30;99.90;;;;;;4990653;28;20049;-70
2022/09/08 12:46:35;;;;;;;5.78;3.50;;;17.30;99.90;;;;;;5006451;28;20087;-69
2022/09/08 12:49:22;;;;;;;9.35;4.60;;;17.30;99.90;;;;;;4979403;28;20071;-69
2022/09/08 12:51:52;;;;;;;13.13;4.82;;;17.30;99.90;;;;;;5003525;28;20490;-69
2022/09/08 12:54:39;;;;;;;7.78;3.80;;;17.40;99.90;;;;;;4975418;28;20092;-69
2022/09/08 12:57:37;;;;;;;11.68;4.63;;;17.40;99.90;;;;;;4999659;28;20396;-69
2022/09/08 13:00:12;;;;;;;7.63;3.55;;;17.40;99.90;;;;;;4991081;28;20042;-69
2022/09/08 13:02:57;;;;;;;8.77;3.95;;;17.40;99.90;;;;;;4976538;28;20085;-70
2022/09/08 13:05:38;;;;;;;14.98;4.47;;;17.40;99.90;;;;;;5000358;28;20058;-69
2022/09/08 13:08:25;;;;;;;9.38;4.05;;;17.40;99.90;;;;;;4986751;28;20503;-69
2022/09/08 13:11:08;;;;;;;10.15;4.13;;;17.40;99.90;;;;;;4997087;28;20050;-69
2022/09/08 13:13:43;;;;;;;7.85;3.85;;;17.40;99.90;;;;;;4998444;28;20035;-69
2022/09/08 13:16:14;;;;;;;10.23;4.20;;;17.40;99.90;;;;;;4996121;28;20459;-68
2022/09/08 13:19:04;;;;;;;9.75;5.13;;;17.40;99.90;;;;;;4974467;28;20042;-68
2022/09/08 13:22:14;;;;;;;11.13;4.85;;;17.30;99.90;;;;;;4991412;28;20498;-68
2022/09/08 13:25:09;;;;;;;8.43;5.03;;;17.40;99.90;;;;;;4980029;28;20489;-68
2022/09/08 13:27:44;;;;;;;8.77;4.80;;;17.40;99.90;;;;;;5004650;28;20041;-69
2022/09/08 13:30:22;;;;;;;11.48;4.93;;;17.40;99.90;;;;;;5006734;28;20124;-69
2022/09/08 13:32:48;;;;;;;;;;;17.40;99.90;;;;;;4986284;28;20097;-68
2022/09/08 13:35:38;;;;;;;8.05;5.38;;;17.40;99.90;;;;;;4989215;28;19921;-69
2022/09/08 13:38:26;;;;;;;8.23;5.80;;;17.40;99.90;;;;;;4978203;28;20046;-68
2022/09/08 13:41:23;;;;;;;7.75;4.60;;;17.40;99.90;;;;;;4991656;28;20050;-67
2022/09/08 13:43:58;;;;;;;11.93;5.75;;;17.40;99.90;;;;;;4952077;28;20518;-67
2022/09/08 13:46:49;;;;;;;8.35;5.75;;;17.50;99.90;;;;;;5004435;28;20044;-67
2022/09/08 13:49:29;;;;;;;10.30;5.88;;;17.50;99.90;;;;;;4984544;28;20072;-67
2022/09/08 13:52:01;;;;;;;9.80;6.03;;;17.60;99.90;;;;;;4995584;28;20129;-67
2022/09/08 13:54:51;;;;;;;9.25;6.07;;;17.60;99.90;;;;;;4991417;28;20065;-67
2022/09/08 13:57:26;;;;;;;11.23;6.85;;;17.60;99.90;;;;;;4993267;28;20066;-68
2022/09/08 14:00:08;;;;;;;9.10;6.63;;;17.70;99.90;;;;;;5000107;28;20520;-67
2022/09/08 14:02:55;;;;;;;8.40;6.88;;;17.70;99.90;;;;;;5014861;28;20049;-68
2022/09/08 14:05:32;;;;;;;12.13;7.60;;;17.80;99.90;;;;;;4996937;28;20050;-67
2022/09/08 14:08:09;;;;;;;8.93;7.32;;;17.90;99.90;;;;;;4983583;28;20120;-68
2022/09/08 14:10:43;;;;;;;14.15;8.10;;;18.00;99.90;;;;;;4994550;28;20050;-68
2022/09/08 14:13:14;;;;;;;12.90;7.28;;;18.00;99.90;;;;;;5004554;28;20046;-67
2022/09/08 14:15:48;;;;;;;11.30;7.75;;;18.10;99.90;;;;;;4995439;28;20366;-68
2022/09/08 14:18:22;;;;;;;14.35;8.10;;;18.10;99.90;;;;;;4996870;28;20461;-67
2022/09/08 14:21:06;;;;;;;12.82;7.78;;;18.20;99.90;;;;;;5004837;28;20054;-65
2022/09/08 14:23:50;;;;;;;11.73;9.10;;;18.20;99.90;;;;;;4984990;28;20050;-68